createdAt,value
2023-01-18T00:05:57.195Z,-0.62
2023-01-18T00:12:20.218Z,-0.68
2023-01-18T00:18:40.220Z,-0.69
2023-01-18T00:25:03.177Z,-0.65
2023-01-18T00:31:23.248Z,-0.73
2023-01-18T00:37:46.224Z,-0.82
2023-01-18T00:44:06.154Z,-0.9
2023-01-18T00:50:29.176Z,-1.09
2023-01-18T00:56:49.263Z,-1.11
2023-01-18T01:03:12.222Z,-1.05
2023-01-18T01:09:32.186Z,-0.94
2023-01-18T01:15:55.320Z,-1
2023-01-18T01:22:15.187Z,-1.1
2023-01-18T01:28:38.178Z,-1.05
2023-01-18T01:34:58.228Z,-1.05
2023-01-18T01:41:21.241Z,-1.26
2023-01-18T01:47:41.164Z,-1.3
2023-01-18T01:54:04.264Z,-1.26
2023-01-18T02:00:24.182Z,-1.23
2023-01-18T02:06:47.199Z,-1.14
2023-01-18T02:13:07.188Z,-1.17
2023-01-18T02:19:30.208Z,-1.38
2023-01-18T02:25:50.200Z,-1.45
2023-01-18T02:32:13.294Z,-1.4
2023-01-18T02:38:33.158Z,-1.34
2023-01-18T02:44:56.230Z,-1.3
2023-01-18T02:51:16.280Z,-1.48
2023-01-18T02:57:39.335Z,-1.7
2023-01-18T03:03:59.185Z,-1.85
2023-01-18T03:10:22.320Z,-1.8
2023-01-18T03:16:42.188Z,-1.61
2023-01-18T03:23:05.228Z,-1.51
2023-01-18T03:29:25.253Z,-1.46
2023-01-18T03:35:48.324Z,-1.54
2023-01-18T03:42:08.267Z,-1.62
2023-01-18T03:48:31.345Z,-1.62
2023-01-18T03:54:51.180Z,-1.58
2023-01-18T04:01:14.341Z,-1.59
2023-01-18T04:23:42.218Z,-2
2023-01-18T04:30:05.200Z,-1.9
2023-01-18T04:36:25.176Z,-1.71
2023-01-18T04:42:48.192Z,-1.55
2023-01-18T04:49:08.191Z,-1.43
2023-01-18T04:55:31.238Z,-1.48
2023-01-18T05:01:51.186Z,-1.57
2023-01-18T05:08:14.194Z,-1.63
2023-01-18T05:14:34.246Z,-1.59
2023-01-18T05:20:57.207Z,-1.5
2023-01-18T05:27:17.296Z,-1.53
2023-01-18T05:33:40.223Z,-1.49
2023-01-18T05:40:00.249Z,-1.5
2023-01-18T05:46:23.234Z,-1.5
2023-01-18T05:52:43.176Z,-1.46
2023-01-18T05:59:06.239Z,-1.47
2023-01-18T06:05:26.185Z,-1.55
2023-01-18T06:11:49.186Z,-1.52
2023-01-18T06:18:09.195Z,-1.49
2023-01-18T06:24:32.201Z,-1.48
2023-01-18T06:30:52.184Z,-1.49
2023-01-18T06:37:15.270Z,-1.54
2023-01-18T06:43:35.187Z,-1.62
2023-01-18T06:49:58.195Z,-1.64
2023-01-18T06:56:18.298Z,-1.68
2023-01-18T07:02:41.324Z,-1.74
2023-01-18T07:09:01.240Z,-1.75
2023-01-18T07:15:24.194Z,-1.78
2023-01-18T07:21:44.233Z,-1.82
2023-01-18T07:28:07.260Z,-1.85
2023-01-18T07:34:27.266Z,-1.82
2023-01-18T07:40:50.220Z,-1.84
2023-01-18T07:47:10.206Z,-1.76
2023-01-18T07:53:33.283Z,-1.73
2023-01-18T07:59:53.193Z,-1.67
2023-01-18T08:06:16.202Z,-1.72
2023-01-18T08:12:36.207Z,-1.66
2023-01-18T08:18:59.305Z,-1.59
2023-01-18T08:25:19.226Z,-1.46
2023-01-18T08:31:42.356Z,-1.44
2023-01-18T08:38:02.184Z,-1.46
2023-01-18T08:44:25.232Z,-1.49
2023-01-18T08:50:45.277Z,-1.46
2023-01-18T08:57:08.762Z,-1.3
2023-01-18T09:03:29.230Z,-1.2
2023-01-18T09:09:52.271Z,-1.18
2023-01-18T09:16:12.331Z,-1.08
2023-01-18T09:32:03.711Z,-0.69
2023-01-18T09:38:23.159Z,-0.65
2023-01-18T09:44:46.181Z,-0.44
2023-01-18T09:51:06.232Z,-0.23
2023-01-18T09:57:29.298Z,-0.04
2023-01-18T10:03:49.285Z,0.11
2023-01-18T10:10:12.204Z,0.27
2023-01-18T10:16:32.180Z,0.43
2023-01-18T10:22:55.337Z,0.64
2023-01-18T10:29:15.197Z,0.88
2023-01-18T10:35:38.182Z,1.05
2023-01-18T10:41:58.223Z,1.2
2023-01-18T10:48:21.246Z,1.48
2023-01-18T10:54:41.283Z,1.65
2023-01-18T11:01:04.274Z,1.75
2023-01-18T11:07:24.390Z,1.92
2023-01-18T11:13:47.258Z,2.06
2023-01-18T11:20:07.262Z,2.08
2023-01-18T11:26:30.277Z,2.17
2023-01-18T11:32:50.196Z,2.37
2023-01-18T11:39:13.394Z,2.49
2023-01-18T11:45:33.222Z,2.59
2023-01-18T11:51:56.161Z,2.82
2023-01-18T11:58:16.204Z,3.23
2023-01-18T12:04:39.189Z,3.51
2023-01-18T12:10:59.251Z,3.71
2023-01-18T12:17:22.267Z,3.92
2023-01-18T12:23:42.228Z,3.94
2023-01-18T12:30:05.253Z,3.86
2023-01-18T12:36:25.191Z,3.99
2023-01-18T12:42:48.304Z,4.28
2023-01-18T12:49:08.447Z,4.45
2023-01-18T12:55:31.616Z,4.59
2023-01-18T13:01:52.524Z,4.72
2023-01-18T13:08:15.197Z,4.89
2023-01-18T13:14:35.361Z,5.06
2023-01-18T13:20:58.221Z,5.37
2023-01-18T13:27:18.218Z,5.28
2023-01-18T13:33:42.207Z,5.28
2023-01-18T13:40:02.258Z,5.26
2023-01-18T13:46:25.377Z,5.08
2023-01-18T13:52:45.167Z,4.9
2023-01-18T13:59:08.283Z,4.9
2023-01-18T14:05:28.214Z,5.01
2023-01-18T14:11:51.287Z,4.91
2023-01-18T14:27:40.203Z,4.86
2023-01-18T14:34:00.160Z,4.81
2023-01-18T14:40:23.179Z,4.7
2023-01-18T14:46:43.288Z,4.68
2023-01-18T14:53:06.209Z,4.71
2023-01-18T14:59:26.187Z,4.69
2023-01-18T15:05:49.263Z,4.63
2023-01-18T15:12:09.207Z,4.49
2023-01-18T15:18:32.266Z,4.4
2023-01-18T15:24:52.265Z,4.34
2023-01-18T15:31:15.348Z,4.11
2023-01-18T15:37:35.244Z,3.86
2023-01-18T15:43:58.286Z,3.62
2023-01-18T15:50:18.183Z,3.46
2023-01-18T15:56:41.290Z,3.37
2023-01-18T16:03:03.038Z,3.24
2023-01-18T16:09:24.160Z,3.14
2023-01-18T16:15:44.178Z,3.01
2023-01-18T16:22:07.260Z,2.89
2023-01-18T16:28:27.303Z,2.86
2023-01-18T16:34:50.257Z,2.67
2023-01-18T16:41:10.208Z,2.48
2023-01-18T16:47:33.361Z,2.36
2023-01-18T16:53:53.211Z,2.23
2023-01-18T17:00:16.269Z,2.14
2023-01-18T17:06:36.148Z,2.08
2023-01-18T17:12:59.523Z,1.97
2023-01-18T17:19:19.246Z,1.86
2023-01-18T17:25:42.179Z,1.71
2023-01-18T17:32:02.151Z,1.54
2023-01-18T17:38:27.294Z,1.42
2023-01-18T17:44:45.228Z,1.37
2023-01-18T17:51:08.246Z,1.32
2023-01-18T17:57:28.212Z,1.22
2023-01-18T18:03:51.149Z,1.07
2023-01-18T18:10:11.192Z,0.92
2023-01-18T18:16:38.412Z,0.76
2023-01-18T18:22:54.409Z,0.63
2023-01-18T18:29:17.310Z,0.5
2023-01-18T18:35:37.242Z,0.33
2023-01-18T18:42:00.234Z,0.24
2023-01-18T18:48:20.212Z,0.17
2023-01-18T18:54:43.241Z,0.11
2023-01-18T19:01:03.262Z,0.04
2023-01-18T19:07:26.166Z,0.02
2023-01-18T19:32:31.202Z,-0.09
2023-01-18T19:38:57.795Z,-0.12
2023-01-18T19:45:23.094Z,-0.16
2023-01-18T19:51:34.189Z,-0.18
2023-01-18T19:57:57.194Z,-0.18
2023-01-18T20:04:17.326Z,-0.21
2023-01-18T20:10:40.413Z,-0.29
2023-01-18T20:17:00.215Z,-0.33
2023-01-18T20:23:23.223Z,-0.3
2023-01-18T20:29:43.332Z,-0.28
2023-01-18T20:36:06.172Z,-0.24
2023-01-18T20:42:26.363Z,-0.24
2023-01-18T20:48:49.265Z,-0.3
2023-01-18T20:55:09.229Z,-0.41
2023-01-18T21:01:32.683Z,-0.42
2023-01-18T21:07:52.219Z,-0.38
2023-01-18T21:14:15.170Z,-0.35
2023-01-18T21:20:35.276Z,-0.29
2023-01-18T21:26:58.321Z,-0.28
2023-01-18T21:33:18.161Z,-0.29
2023-01-18T21:39:41.246Z,-0.37
2023-01-18T21:46:01.264Z,-0.43
2023-01-18T21:52:24.371Z,-0.51
2023-01-18T21:58:44.244Z,-0.59
2023-01-18T22:05:07.220Z,-0.65
2023-01-18T22:11:27.203Z,-0.7
2023-01-18T22:17:50.264Z,-0.72
2023-01-18T22:24:10.194Z,-0.72
2023-01-18T22:30:33.288Z,-0.7
2023-01-18T22:36:53.142Z,-0.67
2023-01-18T22:43:16.203Z,-0.6
2023-01-18T22:49:36.140Z,-0.49
2023-01-18T22:55:59.208Z,-0.33
2023-01-18T23:20:14.179Z,0.35
2023-01-18T23:26:34.183Z,0.42
2023-01-18T23:32:57.246Z,0.49
2023-01-18T23:39:17.202Z,0.59
2023-01-18T23:45:40.191Z,0.7
2023-01-18T23:52:00.179Z,0.8
2023-01-18T23:58:23.291Z,0.91
